Time;durP1;ratioP1;P1;durP2;ratioP2;P2;SDS_P1;SDS_P2;PMS_P1;PMS_P2;Temp;Humidity;BMP_temperature;BMP_pressure;BME280_temperature;BME280_humidity;BME280_pressure;Samples;Min_cycle;Max_cycle;Signal;HPM_P1;HPM_P2
2023/08/14 00:02:22;;;;;;;;;;;;;;;;;;5065702;28;20392;-87
2023/08/14 00:04:47;;;;;;;;;;;;;;;;;;5065440;28;19932;-87
2023/08/14 00:07:13;;;;;;;;;;;;;;;;;;5048905;28;19925;-88
2023/08/14 00:09:39;;;;;;;;;;;;;;;;;;5049692;28;20429;-88
2023/08/14 00:12:05;;;;;;;;;;;;;;;;;;5064670;28;19932;-87
2023/08/14 00:14:31;;;;;;;;;;;;;;;;;;5060506;28;19928;-88
2023/08/14 00:16:57;;;;;;;;;;;;;;;;;;5063374;28;19928;-87
2023/08/14 00:19:23;;;;;;;;;;;;;;;;;;5064985;28;20438;-87
2023/08/14 00:21:49;;;;;;;;;;;;;;;;;;5055007;28;19964;-88
2023/08/14 00:24:15;;;;;;;;;;;;;;;;;;5064266;28;20435;-87
2023/08/14 00:26:41;;;;;;;;;;;;;;;;;;5046660;28;19929;-87
2023/08/14 00:29:07;;;;;;;;;;;;;;;;;;5064442;28;19932;-88
2023/08/14 00:31:33;;;;;;;;;;;;;;;;;;5064842;28;19928;-87
2023/08/14 00:33:59;;;;;;;;;;;;;;;;;;5048724;28;19942;-88
2023/08/14 00:36:25;;;;;;;;;;;;;;;;;;5068584;28;19961;-87
2023/08/14 00:38:51;;;;;;;;;;;;;;;;;;5051686;28;19928;-87
2023/08/14 00:41:16;;;;;;;;;;;;;;;;;;5051298;28;19928;-86
2023/08/14 00:43:42;;;;;;;;;;;;;;;;;;5067886;28;19924;-87
2023/08/14 00:46:08;;;;;;;;;;;;;;;;;;5066335;28;20028;-87
2023/08/14 00:48:34;;;;;;;;;;;;;;;;;;5047772;28;19929;-87
2023/08/14 00:51:00;;;;;;;;;;;;;;;;;;5064446;28;20296;-87
2023/08/14 00:53:26;;;;;;;;;;;;;;;;;;5046570;28;19928;-88
2023/08/14 00:55:52;;;;;;;;;;;;;;;;;;5064007;28;19928;-87
2023/08/14 00:58:18;;;;;;;;;;;;;;;;;;5047298;28;19947;-87
2023/08/14 01:00:44;;;;;;;;;;;;;;;;;;5047471;28;20161;-87
2023/08/14 01:03:13;;;;;;;;;;;;;;;;;;5047453;28;19928;-88
2023/08/14 01:05:39;;;;;;;;;;;;;;;;;;5048069;28;19981;-88
2023/08/14 01:08:04;;;;;;;;;;;;;;;;;;5047761;28;20342;-87
2023/08/14 01:10:30;;;;;;;;;;;;;;;;;;5064371;28;19935;-87
2023/08/14 01:12:56;;;;;;;;;;;;;;;;;;5069901;28;20232;-87
2023/08/14 01:15:22;;;;;;;;;;;;;;;;;;5053844;28;20380;-88
2023/08/14 01:17:48;;;;;;;;;;;;;;;;;;5069909;28;19975;-88
2023/08/14 01:20:14;;;;;;;;;;;;;;;;;;5075056;28;19936;-88
2023/08/14 01:22:41;;;;;;;;;;;;;;;;;;5056142;28;19932;-87
2023/08/14 01:25:07;;;;;;;;;;;;;;;;;;5054037;28;19971;-87
2023/08/14 01:27:33;;;;;;;;;;;;;;;;;;5070825;28;19978;-87
2023/08/14 01:29:59;;;;;;;;;;;;;;;;;;5053153;28;19928;-88
2023/08/14 01:32:25;;;;;;;;;;;;;;;;;;5054052;28;19936;-88
2023/08/14 01:34:51;;;;;;;;;;;;;;;;;;5071547;28;20307;-88
2023/08/14 01:37:16;;;;;;;;;;;;;;;;;;5072740;28;19933;-88
2023/08/14 01:39:42;;;;;;;;;;;;;;;;;;5070772;28;19928;-88
2023/08/14 01:42:08;;;;;;;;;;;;;;;;;;5054060;28;19931;-88
2023/08/14 01:44:34;;;;;;;;;;;;;;;;;;5055267;28;19935;-88
2023/08/14 01:47:00;;;;;;;;;;;;;;;;;;5052850;28;20323;-87
2023/08/14 01:49:26;;;;;;;;;;;;;;;;;;5070225;28;19916;-87
2023/08/14 01:51:52;;;;;;;;;;;;;;;;;;5053291;28;19971;-87
2023/08/14 01:54:18;;;;;;;;;;;;;;;;;;5074555;28;19928;-87
2023/08/14 01:56:44;;;;;;;;;;;;;;;;;;5072236;28;19924;-87
2023/08/14 01:59:10;;;;;;;;;;;;;;;;;;5082451;28;19966;-87
2023/08/14 02:01:36;;;;;;;;;;;;;;;;;;5070168;28;20055;-87
2023/08/14 02:04:02;;;;;;;;;;;;;;;;;;5071338;28;19928;-88
2023/08/14 02:06:31;;;;;;;;;;;;;;;;;;5054331;28;19951;-88
2023/08/14 02:08:57;;;;;;;;;;;;;;;;;;5068860;28;19924;-87
2023/08/14 02:11:23;;;;;;;;;;;;;;;;;;5071089;28;19977;-87
2023/08/14 02:13:49;;;;;;;;;;;;;;;;;;5069093;28;19935;-88
2023/08/14 02:16:15;;;;;;;;;;;;;;;;;;5053068;28;20300;-88
2023/08/14 02:18:40;;;;;;;;;;;;;;;;;;5049848;28;20015;-88
2023/08/14 02:21:06;;;;;;;;;;;;;;;;;;5070457;28;19929;-87
2023/08/14 02:23:32;;;;;;;;;;;;;;;;;;5054018;28;19935;-87
2023/08/14 02:25:58;;;;;;;;;;;;;;;;;;5066625;28;21621;-87
2023/08/14 02:28:24;;;;;;;;;;;;;;;;;;5066502;28;19977;-87
2023/08/14 02:30:50;;;;;;;;;;;;;;;;;;5067445;28;20369;-87
2023/08/14 02:33:16;;;;;;;;;;;;;;;;;;5050560;28;19931;-87
2023/08/14 02:35:42;;;;;;;;;;;;;;;;;;5066071;28;19928;-87
2023/08/14 02:38:08;;;;;;;;;;;;;;;;;;5065793;28;19928;-89
2023/08/14 02:40:34;;;;;;;;;;;;;;;;;;5066462;28;19929;-87
2023/08/14 02:43:00;;;;;;;;;;;;;;;;;;5066605;28;19924;-88
2023/08/14 02:45:26;;;;;;;;;;;;;;;;;;5067400;28;19925;-87
2023/08/14 02:47:52;;;;;;;;;;;;;;;;;;5050170;28;20379;-87
2023/08/14 02:50:18;;;;;;;;;;;;;;;;;;5066807;28;19935;-87
2023/08/14 02:52:44;;;;;;;;;;;;;;;;;;5045674;28;19953;-87
2023/08/14 02:55:09;;;;;;;;;;;;;;;;;;5067008;28;20517;-88
2023/08/14 02:57:35;;;;;;;;;;;;;;;;;;5066477;28;19928;-88
2023/08/14 03:00:01;;;;;;;;;;;;;;;;;;5066193;28;19978;-87
2023/08/14 03:02:27;;;;;;;;;;;;;;;;;;5049909;28;20388;-87
2023/08/14 03:04:53;;;;;;;;;;;;;;;;;;5065801;28;19924;-87
2023/08/14 03:07:19;;;;;;;;;;;;;;;;;;5065213;28;20962;-88
2023/08/14 03:09:45;;;;;;;;;;;;;;;;;;5048435;28;20284;-88
2023/08/14 03:12:11;;;;;;;;;;;;;;;;;;5050649;28;19928;-87
2023/08/14 03:14:37;;;;;;;;;;;;;;;;;;5066992;28;20019;-87
2023/08/14 03:17:03;;;;;;;;;;;;;;;;;;5048733;28;20426;-89
2023/08/14 03:19:29;;;;;;;;;;;;;;;;;;5068868;28;19934;-85
2023/08/14 03:21:54;;;;;;;;;;;;;;;;;;5070082;28;19951;-88
2023/08/14 03:24:20;;;;;;;;;;;;;;;;;;5066288;28;19932;-88
2023/08/14 03:26:46;;;;;;;;;;;;;;;;;;5066414;28;20036;-89
2023/08/14 03:29:12;;;;;;;;;;;;;;;;;;5069904;28;19925;-87
2023/08/14 03:31:38;;;;;;;;;;;;;;;;;;5049721;28;19939;-88
2023/08/14 03:34:04;;;;;;;;;;;;;;;;;;5066023;28;20295;-87
2023/08/14 03:36:30;;;;;;;;;;;;;;;;;;5063243;28;19924;-87
2023/08/14 03:38:56;;;;;;;;;;;;;;;;;;5064653;28;19974;-88
2023/08/14 03:41:22;;;;;;;;;;;;;;;;;;5066144;28;20352;-88
2023/08/14 03:43:48;;;;;;;;;;;;;;;;;;5065894;28;19929;-87
2023/08/14 03:46:14;;;;;;;;;;;;;;;;;;5065299;28;19924;-87
2023/08/14 03:48:40;;;;;;;;;;;;;;;;;;5068941;28;20413;-87
2023/08/14 03:51:06;;;;;;;;;;;;;;;;;;5065302;28;19929;-86
2023/08/14 03:53:32;;;;;;;;;;;;;;;;;;5065628;28;19928;-88
2023/08/14 03:55:58;;;;;;;;;;;;;;;;;;5066112;28;19928;-87
2023/08/14 03:58:24;;;;;;;;;;;;;;;;;;5074828;28;19977;-87
2023/08/14 04:00:50;;;;;;;;;;;;;;;;;;5053290;28;19928;-88
2023/08/14 04:03:16;;;;;;;;;;;;;;;;;;5066241;28;19928;-87
2023/08/14 04:05:42;;;;;;;;;;;;;;;;;;5061410;28;19929;-86
2023/08/14 04:08:08;;;;;;;;;;;;;;;;;;5064317;28;20307;-88
2023/08/14 04:10:34;;;;;;;;;;;;;;;;;;5048198;28;20013;-87
2023/08/14 04:13:00;;;;;;;;;;;;;;;;;;5065366;28;20355;-88
2023/08/14 04:15:26;;;;;;;;;;;;;;;;;;5061842;28;19928;-88
2023/08/14 04:17:52;;;;;;;;;;;;;;;;;;5064735;28;19928;-86
2023/08/14 04:20:18;;;;;;;;;;;;;;;;;;5071020;28;19928;-87
2023/08/14 04:22:44;;;;;;;;;;;;;;;;;;5063777;28;19929;-87
2023/08/14 04:25:10;;;;;;;;;;;;;;;;;;5047317;28;19935;-87
2023/08/14 04:27:38;;;;;;;;;;;;;;;;;;5066249;28;20285;-87
2023/08/14 04:30:05;;;;;;;;;;;;;;;;;;5065664;28;20422;-87
2023/08/14 04:32:31;;;;;;;;;;;;;;;;;;5064322;28;20285;-87
2023/08/14 04:35:00;;;;;;;;;;;;;;;;;;5063562;28;19939;-87
2023/08/14 04:37:26;;;;;;;;;;;;;;;;;;5046042;28;19928;-87
2023/08/14 04:39:51;;;;;;;;;;;;;;;;;;5066463;28;19960;-87
2023/08/14 04:42:17;;;;;;;;;;;;;;;;;;5047781;28;19920;-87
2023/08/14 04:44:45;;;;;;;;;;;;;;;;;;5066126;28;20338;-86
2023/08/14 04:47:11;;;;;;;;;;;;;;;;;;5062736;28;19928;-87
2023/08/14 04:49:37;;;;;;;;;;;;;;;;;;5069168;28;19970;-88
2023/08/14 04:52:03;;;;;;;;;;;;;;;;;;5047223;28;20204;-87
2023/08/14 04:54:29;;;;;;;;;;;;;;;;;;5064141;28;20400;-87
2023/08/14 04:56:55;;;;;;;;;;;;;;;;;;5062750;28;19974;-88
2023/08/14 04:59:24;;;;;;;;;;;;;;;;;;5047799;28;20384;-88
2023/08/14 05:01:50;;;;;;;;;;;;;;;;;;5062608;28;19924;-88
2023/08/14 05:04:16;;;;;;;;;;;;;;;;;;5063699;28;20277;-90
2023/08/14 05:06:42;;;;;;;;;;;;;;;;;;5064301;28;19920;-88
2023/08/14 05:09:07;;;;;;;;;;;;;;;;;;5064322;28;19928;-86
2023/08/14 05:11:33;;;;;;;;;;;;;;;;;;5064412;28;19982;-87
2023/08/14 05:13:59;;;;;;;;;;;;;;;;;;5064163;28;19936;-87
2023/08/14 05:16:25;;;;;;;;;;;;;;;;;;5065378;28;20269;-85
2023/08/14 05:18:51;;;;;;;;;;;;;;;;;;5063375;28;19928;-88
2023/08/14 05:21:17;;;;;;;;;;;;;;;;;;5067280;28;19963;-88
2023/08/14 05:23:43;;;;;;;;;;;;;;;;;;5046787;28;20023;-88
2023/08/14 05:26:09;;;;;;;;;;;;;;;;;;5046692;28;19932;-87
2023/08/14 05:28:35;;;;;;;;;;;;;;;;;;5047711;28;19928;-87
2023/08/14 05:31:01;;;;;;;;;;;;;;;;;;5062609;28;19975;-86
2023/08/14 05:33:27;;;;;;;;;;;;;;;;;;5080708;28;19975;-87
2023/08/14 05:35:53;;;;;;;;;;;;;;;;;;5062214;28;20144;-86
2023/08/14 05:38:19;;;;;;;;;;;;;;;;;;5062775;28;19932;-87
2023/08/14 05:40:45;;;;;;;;;;;;;;;;;;5063966;28;20430;-88
2023/08/14 05:43:11;;;;;;;;;;;;;;;;;;5065834;28;19924;-87
2023/08/14 05:45:37;;;;;;;;;;;;;;;;;;5047028;28;19966;-87
2023/08/14 05:48:03;;;;;;;;;;;;;;;;;;5048491;28;20395;-87
2023/08/14 05:50:29;;;;;;;;;;;;;;;;;;5047165;28;19928;-88
2023/08/14 05:53:04;;;;;;;;;;;;;;;;;;5062419;28;19936;-87
2023/08/14 05:55:30;;;;;;;;;;;;;;;;;;5045963;28;19939;-88
2023/08/14 05:57:56;;;;;;;;;;;;;;;;;;5060451;28;19924;-86
2023/08/14 06:00:22;;;;;;;;;;;;;;;;;;5065284;28;20335;-87
2023/08/14 06:02:48;;;;;;;;;;;;;;;;;;5049373;28;19968;-87
2023/08/14 06:05:14;;;;;;;;;;;;;;;;;;5063797;28;20282;-86
2023/08/14 06:07:40;;;;;;;;;;;;;;;;;;5057877;28;19976;-87
2023/08/14 06:10:06;;;;;;;;;;;;;;;;;;5054263;28;19933;-86
2023/08/14 06:12:32;;;;;;;;;;;;;;;;;;5068121;28;20335;-91
2023/08/14 06:14:58;;;;;;;;;;;;;;;;;;5066000;28;19929;-88
2023/08/14 06:17:24;;;;;;;;;;;;;;;;;;5058581;28;19935;-88
2023/08/14 06:19:53;;;;;;;;;;;;;;;;;;5051117;28;19943;-88
2023/08/14 06:22:19;;;;;;;;;;;;;;;;;;5066392;28;20035;-89
2023/08/14 06:24:45;;;;;;;;;;;;;;;;;;5050552;28;20455;-88
2023/08/14 06:27:11;;;;;;;;;;;;;;;;;;5063769;28;19929;-89
2023/08/14 06:29:36;;;;;;;;;;;;;;;;;;5067814;28;19924;-89
2023/08/14 06:32:04;;;;;;;;;;;;;;;;;;5067790;28;20015;-87
2023/08/14 06:34:30;;;;;;;;;;;;;;;;;;5066798;28;19968;-88
2023/08/14 06:36:56;;;;;;;;;;;;;;;;;;5065681;28;19971;-87
2023/08/14 06:39:22;;;;;;;;;;;;;;;;;;5049968;28;19987;-87
2023/08/14 06:41:48;;;;;;;;;;;;;;;;;;5067185;28;19955;-88
2023/08/14 06:44:13;;;;;;;;;;;;;;;;;;5069438;28;19932;-88
2023/08/14 06:46:39;;;;;;;;;;;;;;;;;;5049207;28;20388;-87
2023/08/14 06:49:05;;;;;;;;;;;;;;;;;;5034700;28;20019;-88
2023/08/14 06:51:31;;;;;;;;;;;;;;;;;;5046421;28;19935;-87
2023/08/14 06:53:57;;;;;;;;;;;;;;;;;;5061351;28;19928;-88
2023/08/14 06:56:23;;;;;;;;;;;;;;;;;;5061783;28;19920;-87
2023/08/14 06:58:52;;;;;;;;;;;;;;;;;;5046594;28;19929;-88
2023/08/14 07:01:18;;;;;;;;;;;;;;;;;;5066771;28;19955;-88
2023/08/14 07:03:44;;;;;;;;;;;;;;;;;;5061931;28;19951;-88
2023/08/14 07:06:10;;;;;;;;;;;;;;;;;;5079344;28;19943;-86
2023/08/14 07:08:36;;;;;;;;;;;;;;;;;;5046739;28;20015;-87
2023/08/14 07:11:02;;;;;;;;;;;;;;;;;;5048988;28;19980;-87
2023/08/14 07:13:28;;;;;;;;;;;;;;;;;;5050886;28;20474;-89
2023/08/14 07:15:54;;;;;;;;;;;;;;;;;;5059799;28;20077;-88
2023/08/14 07:18:19;;;;;;;;;;;;;;;;;;5044209;28;19928;-87
2023/08/14 07:20:48;;;;;;;;;;;;;;;;;;5046470;28;19928;-87
2023/08/14 07:23:14;;;;;;;;;;;;;;;;;;5045320;28;20292;-89
2023/08/14 07:25:40;;;;;;;;;;;;;;;;;;5064756;28;19933;-85
2023/08/14 07:28:06;;;;;;;;;;;;;;;;;;5063444;28;19924;-89
2023/08/14 07:30:35;;;;;;;;;;;;;;;;;;5065124;28;19928;-88
2023/08/14 07:33:01;;;;;;;;;;;;;;;;;;5062857;28;19925;-88
2023/08/14 07:35:27;;;;;;;;;;;;;;;;;;5060746;28;19972;-87
2023/08/14 07:37:53;;;;;;;;;;;;;;;;;;5059849;28;19928;-87
2023/08/14 07:40:19;;;;;;;;;;;;;;;;;;5065790;28;19940;-87
2023/08/14 07:42:45;;;;;;;;;;;;;;;;;;5062180;28;19929;-90
2023/08/14 07:45:10;;;;;;;;;;;;;;;;;;5063396;28;19929;-90
2023/08/14 07:47:36;;;;;;;;;;;;;;;;;;5063973;28;20365;-91
2023/08/14 07:50:02;;;;;;;;;;;;;;;;;;5046732;28;19978;-91
2023/08/14 07:52:29;;;;;;;;;;;;;;;;;;5044063;28;19928;-90
2023/08/14 07:54:57;;;;;;;;;;;;;;;;;;5059572;28;19936;-91
2023/08/14 07:57:23;;;;;;;;;;;;;;;;;;5042892;28;19932;-90
2023/08/14 07:59:49;;;;;;;;;;;;;;;;;;5064096;28;19929;-92
2023/08/14 08:02:18;;;;;;;;;;;;;;;;;;5058447;28;20707;-90
2023/08/14 08:04:44;;;;;;;;;;;;;;;;;;5058362;28;20463;-89
2023/08/14 08:07:10;;;;;;;;;;;;;;;;;;5062473;28;19971;-89
2023/08/14 08:09:36;;;;;;;;;;;;;;;;;;5065116;28;19938;-89
2023/08/14 08:12:02;;;;;;;;;;;;;;;;;;5048278;28;20011;-88
2023/08/14 08:14:28;;;;;;;;;;;;;;;;;;5047940;28;20010;-87
2023/08/14 08:16:54;;;;;;;;;;;;;;;;;;5062871;28;19928;-87
2023/08/14 08:19:20;;;;;;;;;;;;;;;;;;5061170;28;19983;-89
2023/08/14 08:21:50;;;;;;;;;;;;;;;;;;5064833;28;19942;-88
2023/08/14 08:24:16;;;;;;;;;;;;;;;;;;5047595;28;19935;-88
2023/08/14 08:26:45;;;;;;;;;;;;;;;;;;5061474;28;19929;-88
2023/08/14 08:29:14;;;;;;;;;;;;;;;;;;5061596;28;19935;-88
2023/08/14 08:31:40;;;;;;;;;;;;;;;;;;5064441;28;20003;-89
2023/08/14 08:34:06;;;;;;;;;;;;;;;;;;5065265;28;19979;-88
2023/08/14 08:36:31;;;;;;;;;;;;;;;;;;5064362;28;20443;-88
2023/08/14 08:38:57;;;;;;;;;;;;;;;;;;5063933;28;19928;-88
2023/08/14 08:41:23;;;;;;;;;;;;;;;;;;5064465;28;19971;-88
2023/08/14 08:43:49;;;;;;;;;;;;;;;;;;5065015;28;20000;-88
2023/08/14 08:46:15;;;;;;;;;;;;;;;;;;5047987;28;20360;-88
2023/08/14 08:48:41;;;;;;;;;;;;;;;;;;5064383;28;19935;-88
2023/08/14 08:51:07;;;;;;;;;;;;;;;;;;5064236;28;19932;-88
2023/08/14 08:53:33;;;;;;;;;;;;;;;;;;5061446;28;20410;-87
2023/08/14 08:55:59;;;;;;;;;;;;;;;;;;5047336;28;19929;-88
2023/08/14 08:58:24;;;;;;;;;;;;;;;;;;5045098;28;20355;-88
2023/08/14 09:00:51;;;;;;;;;;;;;;;;;;5062282;28;19974;-87
2023/08/14 09:03:17;;;;;;;;;;;;;;;;;;5062297;28;19925;-88
2023/08/14 09:05:43;;;;;;;;;;;;;;;;;;5063910;28;19935;-88
2023/08/14 09:08:09;;;;;;;;;;;;;;;;;;5059227;28;20013;-86
2023/08/14 09:10:35;;;;;;;;;;;;;;;;;;5048156;28;19928;-88
2023/08/14 09:13:01;;;;;;;;;;;;;;;;;;5063514;28;19978;-89
2023/08/14 09:15:27;;;;;;;;;;;;;;;;;;5063965;28;19932;-88
2023/08/14 09:17:53;;;;;;;;;;;;;;;;;;5044742;28;19943;-87
2023/08/14 09:20:19;;;;;;;;;;;;;;;;;;5062250;28;20322;-88
2023/08/14 09:22:45;;;;;;;;;;;;;;;;;;5061211;28;19947;-88
2023/08/14 09:25:11;;;;;;;;;;;;;;;;;;5065057;28;20058;-88
2023/08/14 09:27:37;;;;;;;;;;;;;;;;;;5063932;28;19932;-88
2023/08/14 09:30:02;;;;;;;;;;;;;;;;;;5044791;28;19929;-87
2023/08/14 09:32:28;;;;;;;;;;;;;;;;;;5062901;28;19954;-87
2023/08/14 09:34:54;;;;;;;;;;;;;;;;;;5065857;28;19928;-88
2023/08/14 09:37:20;;;;;;;;;;;;;;;;;;5067359;28;19928;-87
2023/08/14 09:39:46;;;;;;;;;;;;;;;;;;5068062;28;19928;-87
2023/08/14 09:42:12;;;;;;;;;;;;;;;;;;5050485;28;19928;-86
2023/08/14 09:44:38;;;;;;;;;;;;;;;;;;5066651;28;20288;-87
2023/08/14 09:47:07;;;;;;;;;;;;;;;;;;5048696;28;19950;-88
2023/08/14 09:49:33;;;;;;;;;;;;;;;;;;5065827;28;19958;-87
2023/08/14 09:52:02;;;;;;;;;;;;;;;;;;5051078;28;19940;-87
2023/08/14 09:54:28;;;;;;;;;;;;;;;;;;5071387;28;20407;-87
2023/08/14 09:56:53;;;;;;;;;;;;;;;;;;5049001;28;19951;-87
2023/08/14 09:59:19;;;;;;;;;;;;;;;;;;5067429;28;19928;-87
2023/08/14 10:01:49;;;;;;;;;;;;;;;;;;5050529;28;19936;-86
2023/08/14 10:04:15;;;;;;;;;;;;;;;;;;5048791;28;19929;-87
2023/08/14 10:06:41;;;;;;;;;;;;;;;;;;5048777;28;20057;-88
2023/08/14 10:09:07;;;;;;;;;;;;;;;;;;5065893;28;20493;-88
2023/08/14 10:11:33;;;;;;;;;;;;;;;;;;5079536;28;19928;-87
2023/08/14 10:14:00;;;;;;;;;;;;;;;;;;5058913;28;19928;-88
2023/08/14 10:16:26;;;;;;;;;;;;;;;;;;5049796;28;19932;-86
2023/08/14 10:18:52;;;;;;;;;;;;;;;;;;5050674;28;19935;-87
2023/08/14 10:21:17;;;;;;;;;;;;;;;;;;5071295;28;20422;-87
2023/08/14 10:23:43;;;;;;;;;;;;;;;;;;5060009;28;19968;-88
2023/08/14 10:26:09;;;;;;;;;;;;;;;;;;5050416;28;19932;-87
2023/08/14 10:28:35;;;;;;;;;;;;;;;;;;5048208;28;19924;-87
2023/08/14 10:31:01;;;;;;;;;;;;;;;;;;5065764;28;20288;-87
2023/08/14 10:33:27;;;;;;;;;;;;;;;;;;5065980;28;20011;-87
2023/08/14 10:35:58;;;;;;;;;;;;;;;;;;5050063;28;19928;-87
2023/08/14 10:38:24;;;;;;;;;;;;;;;;;;5049905;28;20411;-87
2023/08/14 10:40:51;;;;;;;;;;;;;;;;;;5050689;28;19928;-87
2023/08/14 10:43:16;;;;;;;;;;;;;;;;;;5051440;28;20351;-86
2023/08/14 10:45:42;;;;;;;;;;;;;;;;;;5064553;28;19935;-87
2023/08/14 10:48:08;;;;;;;;;;;;;;;;;;5065357;28;20024;-87
2023/08/14 10:50:34;;;;;;;;;;;;;;;;;;5056913;28;20376;-87
2023/08/14 10:53:00;;;;;;;;;;;;;;;;;;5049761;28;19935;-86
2023/08/14 10:55:26;;;;;;;;;;;;;;;;;;5067427;28;19928;-87
2023/08/14 10:57:52;;;;;;;;;;;;;;;;;;5067893;28;19931;-88
2023/08/14 11:00:19;;;;;;;;;;;;;;;;;;5067160;28;19924;-86
2023/08/14 11:02:45;;;;;;;;;;;;;;;;;;5066196;28;19931;-87
2023/08/14 11:05:11;;;;;;;;;;;;;;;;;;5065185;28;20287;-86
2023/08/14 11:07:37;;;;;;;;;;;;;;;;;;5065568;28;19932;-87
2023/08/14 11:10:04;;;;;;;;;;;;;;;;;;5064196;28;19925;-86
2023/08/14 11:12:29;;;;;;;;;;;;;;;;;;5067408;28;20284;-86
2023/08/14 11:14:56;;;;;;;;;;;;;;;;;;5067091;28;19950;-87
2023/08/14 11:17:22;;;;;;;;;;;;;;;;;;5051544;28;19987;-85
2023/08/14 11:19:48;;;;;;;;;;;;;;;;;;5050721;28;20458;-86
2023/08/14 11:22:13;;;;;;;;;;;;;;;;;;5049551;28;19924;-86
2023/08/14 11:24:40;;;;;;;;;;;;;;;;;;5066240;28;20439;-86
2023/08/14 11:27:06;;;;;;;;;;;;;;;;;;5049709;28;19971;-86
2023/08/14 11:29:32;;;;;;;;;;;;;;;;;;5066498;28;19928;-85
2023/08/14 11:31:57;;;;;;;;;;;;;;;;;;5048881;28;19928;-86
2023/08/14 11:34:23;;;;;;;;;;;;;;;;;;5049857;28;19924;-85
2023/08/14 11:36:49;;;;;;;;;;;;;;;;;;5066717;28;19979;-86
2023/08/14 11:39:16;;;;;;;;;;;;;;;;;;5065930;28;20406;-87
2023/08/14 11:41:42;;;;;;;;;;;;;;;;;;5051506;28;20023;-86
2023/08/14 11:44:08;;;;;;;;;;;;;;;;;;5070507;28;20019;-87
2023/08/14 11:46:34;;;;;;;;;;;;;;;;;;5071024;28;19928;-86
2023/08/14 11:48:59;;;;;;;;;;;;;;;;;;5065155;28;20141;-87
2023/08/14 11:51:26;;;;;;;;;;;;;;;;;;5055015;28;19972;-85
2023/08/14 11:53:52;;;;;;;;;;;;;;;;;;5063340;28;19935;-87
2023/08/14 11:56:18;;;;;;;;;;;;;;;;;;5046510;28;19928;-87
2023/08/14 11:58:44;;;;;;;;;;;;;;;;;;5066219;28;19936;-86
2023/08/14 12:01:10;;;;;;;;;;;;;;;;;;5066298;28;19935;-86
2023/08/14 12:03:35;;;;;;;;;;;;;;;;;;5048608;28;19928;-85
2023/08/14 12:06:01;;;;;;;;;;;;;;;;;;5049664;28;19989;-86
2023/08/14 12:08:27;;;;;;;;;;;;;;;;;;5065359;28;19950;-86
2023/08/14 12:10:53;;;;;;;;;;;;;;;;;;5065511;28;19934;-86
2023/08/14 12:13:19;;;;;;;;;;;;;;;;;;5045754;28;20381;-86
2023/08/14 12:15:45;;;;;;;;;;;;;;;;;;5065642;28;20263;-85
2023/08/14 12:18:12;;;;;;;;;;;;;;;;;;5065235;28;20348;-86
2023/08/14 12:20:37;;;;;;;;;;;;;;;;;;5064561;28;19935;-86
2023/08/14 12:23:03;;;;;;;;;;;;;;;;;;5045788;28;19924;-86
2023/08/14 12:25:29;;;;;;;;;;;;;;;;;;5062830;28;20293;-85
2023/08/14 12:27:55;;;;;;;;;;;;;;;;;;5064503;28;19939;-86
2023/08/14 12:30:27;;;;;;;;;;;;;;;;;;5046798;28;19929;-86
2023/08/14 12:32:53;;;;;;;;;;;;;;;;;;5045762;28;19924;-86
2023/08/14 12:35:19;;;;;;;;;;;;;;;;;;5044972;28;20351;-86
2023/08/14 12:37:45;;;;;;;;;;;;;;;;;;5044979;28;19928;-87
2023/08/14 12:40:11;;;;;;;;;;;;;;;;;;5063148;28;19935;-85
2023/08/14 12:42:37;;;;;;;;;;;;;;;;;;5036309;28;20319;-86
2023/08/14 12:45:06;;;;;;;;;;;;;;;;;;5068812;28;19928;-86
2023/08/14 12:47:32;;;;;;;;;;;;;;;;;;5046970;28;19935;-85
2023/08/14 12:49:58;;;;;;;;;;;;;;;;;;5048141;28;19928;-83
2023/08/14 12:52:23;;;;;;;;;;;;;;;;;;5061911;28;19924;-83
2023/08/14 12:54:49;;;;;;;;;;;;;;;;;;5063022;28;19932;-83
2023/08/14 12:57:15;;;;;;;;;;;;;;;;;;5063071;28;20304;-84
2023/08/14 12:59:41;;;;;;;;;;;;;;;;;;5065519;28;19981;-84
2023/08/14 13:02:07;;;;;;;;;;;;;;;;;;5046829;28;20368;-86
2023/08/14 13:04:36;;;;;;;;;;;;;;;;;;5062741;28;20384;-85
2023/08/14 13:07:02;;;;;;;;;;;;;;;;;;5060217;28;19935;-87
2023/08/14 13:09:28;;;;;;;;;;;;;;;;;;5062016;28;19929;-86
2023/08/14 13:11:54;;;;;;;;;;;;;;;;;;5062490;28;19925;-86
2023/08/14 13:14:20;;;;;;;;;;;;;;;;;;5060938;28;19930;-85
2023/08/14 13:16:46;;;;;;;;;;;;;;;;;;5044990;28;20015;-86
2023/08/14 13:19:11;;;;;;;;;;;;;;;;;;5062464;28;19933;-86
2023/08/14 13:21:37;;;;;;;;;;;;;;;;;;5047160;28;19970;-86
2023/08/14 13:24:04;;;;;;;;;;;;;;;;;;5048042;28;19928;-85
2023/08/14 13:26:29;;;;;;;;;;;;;;;;;;5070624;28;20462;-85
2023/08/14 13:28:55;;;;;;;;;;;;;;;;;;5062170;28;20007;-86
2023/08/14 13:31:21;;;;;;;;;;;;;;;;;;5063147;28;20391;-86
2023/08/14 13:33:47;;;;;;;;;;;;;;;;;;5063670;28;19929;-86
2023/08/14 13:36:13;;;;;;;;;;;;;;;;;;5063698;28;19951;-85
2023/08/14 13:38:39;;;;;;;;;;;;;;;;;;5047776;28;19967;-85
2023/08/14 13:41:05;;;;;;;;;;;;;;;;;;5048260;28;20011;-85
2023/08/14 13:43:31;;;;;;;;;;;;;;;;;;5061568;28;20625;-87
2023/08/14 13:45:57;;;;;;;;;;;;;;;;;;5063229;28;19963;-86
2023/08/14 13:48:23;;;;;;;;;;;;;;;;;;5045770;28;20015;-87
2023/08/14 13:50:49;;;;;;;;;;;;;;;;;;5045302;28;19934;-87
2023/08/14 13:53:15;;;;;;;;;;;;;;;;;;5063529;28;20014;-86
2023/08/14 13:55:44;;;;;;;;;;;;;;;;;;5063686;28;19928;-86
2023/08/14 13:58:10;;;;;;;;;;;;;;;;;;5063399;28;19928;-85
2023/08/14 14:00:36;;;;;;;;;;;;;;;;;;5061547;28;19925;-86
2023/08/14 14:03:02;;;;;;;;;;;;;;;;;;5063457;28;19928;-86
2023/08/14 14:05:28;;;;;;;;;;;;;;;;;;5064028;28;19932;-86
2023/08/14 14:07:53;;;;;;;;;;;;;;;;;;5063646;28;19928;-86
2023/08/14 14:10:19;;;;;;;;;;;;;;;;;;5046689;28;19933;-85
2023/08/14 14:12:45;;;;;;;;;;;;;;;;;;5061385;28;19974;-85
2023/08/14 14:15:11;;;;;;;;;;;;;;;;;;5046322;28;19924;-86
2023/08/14 14:17:37;;;;;;;;;;;;;;;;;;5064430;28;20447;-86
2023/08/14 14:20:04;;;;;;;;;;;;;;;;;;5065950;28;19927;-86
2023/08/14 14:22:30;;;;;;;;;;;;;;;;;;5063761;28;19951;-86
2023/08/14 14:24:56;;;;;;;;;;;;;;;;;;5064716;28;20376;-86
2023/08/14 14:27:22;;;;;;;;;;;;;;;;;;5065452;28;19939;-86
2023/08/14 14:29:48;;;;;;;;;;;;;;;;;;5065480;28;19939;-85
2023/08/14 14:32:14;;;;;;;;;;;;;;;;;;5048641;28;19928;-85
2023/08/14 14:34:40;;;;;;;;;;;;;;;;;;5051121;28;19947;-86
2023/08/14 14:37:06;;;;;;;;;;;;;;;;;;5066699;28;20658;-86
2023/08/14 14:39:32;;;;;;;;;;;;;;;;;;5050220;28;19928;-87
2023/08/14 14:41:57;;;;;;;;;;;;;;;;;;5051393;28;19933;-86
2023/08/14 14:44:24;;;;;;;;;;;;;;;;;;5067868;28;19925;-85
2023/08/14 14:46:50;;;;;;;;;;;;;;;;;;5065447;28;19935;-85
2023/08/14 14:49:16;;;;;;;;;;;;;;;;;;5057406;28;20354;-87
2023/08/14 14:51:42;;;;;;;;;;;;;;;;;;5059653;28;20025;-86
2023/08/14 14:54:08;;;;;;;;;;;;;;;;;;5065285;28;19928;-85
2023/08/14 14:56:34;;;;;;;;;;;;;;;;;;5047753;28;19924;-86
2023/08/14 14:59:00;;;;;;;;;;;;;;;;;;5048325;28;19940;-86
2023/08/14 15:01:26;;;;;;;;;;;;;;;;;;5049479;28;20465;-86
2023/08/14 15:03:52;;;;;;;;;;;;;;;;;;5067290;28;20448;-86
2023/08/14 15:06:18;;;;;;;;;;;;;;;;;;5050164;28;19936;-85
2023/08/14 15:08:44;;;;;;;;;;;;;;;;;;5055046;28;19981;-84
2023/08/14 15:11:10;;;;;;;;;;;;;;;;;;5063805;28;20435;-86
2023/08/14 15:13:36;;;;;;;;;;;;;;;;;;5056505;28;20008;-85
2023/08/14 15:16:02;;;;;;;;;;;;;;;;;;5075247;28;20441;-86
2023/08/14 15:18:28;;;;;;;;;;;;;;;;;;5063464;28;19928;-85
2023/08/14 15:20:54;;;;;;;;;;;;;;;;;;5066525;28;19932;-86
2023/08/14 15:23:21;;;;;;;;;;;;;;;;;;5064286;28;19971;-85
2023/08/14 15:25:47;;;;;;;;;;;;;;;;;;5047098;28;19928;-86
2023/08/14 15:28:13;;;;;;;;;;;;;;;;;;5072208;28;19968;-86
2023/08/14 15:30:38;;;;;;;;;;;;;;;;;;5066649;28;19932;-86
2023/08/14 15:33:04;;;;;;;;;;;;;;;;;;5064377;28;20350;-87
2023/08/14 15:35:31;;;;;;;;;;;;;;;;;;5064914;28;19987;-86
2023/08/14 15:37:57;;;;;;;;;;;;;;;;;;5062697;28;20454;-86
2023/08/14 15:40:24;;;;;;;;;;;;;;;;;;5065766;28;20018;-86
2023/08/14 15:42:50;;;;;;;;;;;;;;;;;;5046066;28;20046;-87
2023/08/14 15:45:16;;;;;;;;;;;;;;;;;;5061007;28;19951;-85
2023/08/14 15:47:42;;;;;;;;;;;;;;;;;;5066426;28;19935;-85
2023/08/14 15:50:08;;;;;;;;;;;;;;;;;;5065972;28;19935;-86
2023/08/14 15:52:34;;;;;;;;;;;;;;;;;;5063085;28;19928;-86
2023/08/14 15:55:00;;;;;;;;;;;;;;;;;;5046335;28;20384;-86
2023/08/14 15:57:25;;;;;;;;;;;;;;;;;;5046693;28;19928;-87
2023/08/14 15:59:51;;;;;;;;;;;;;;;;;;5047844;28;19990;-86
2023/08/14 16:02:23;;;;;;;;;;;;;;;;;;5065859;28;20005;-85
2023/08/14 16:04:49;;;;;;;;;;;;;;;;;;5057090;28;19924;-86
2023/08/14 16:07:16;;;;;;;;;;;;;;;;;;5071133;28;19932;-86
2023/08/14 16:09:43;;;;;;;;;;;;;;;;;;5064343;28;20011;-86
2023/08/14 16:12:09;;;;;;;;;;;;;;;;;;5063426;28;19971;-87
2023/08/14 16:14:35;;;;;;;;;;;;;;;;;;5064855;28;20530;-85
2023/08/14 16:17:01;;;;;;;;;;;;;;;;;;5063791;28;19928;-85
2023/08/14 16:19:27;;;;;;;;;;;;;;;;;;5049020;28;19928;-85
2023/08/14 16:21:53;;;;;;;;;;;;;;;;;;5063013;28;19963;-86
2023/08/14 16:24:19;;;;;;;;;;;;;;;;;;5046204;28;20300;-86
2023/08/14 16:26:44;;;;;;;;;;;;;;;;;;5062968;28;19994;-86
2023/08/14 16:29:11;;;;;;;;;;;;;;;;;;5064426;28;19929;-85
2023/08/14 16:31:37;;;;;;;;;;;;;;;;;;5065723;28;20002;-85
2023/08/14 16:34:03;;;;;;;;;;;;;;;;;;5077261;28;19929;-86
2023/08/14 16:36:29;;;;;;;;;;;;;;;;;;5063346;28;20028;-86
2023/08/14 16:38:55;;;;;;;;;;;;;;;;;;5062793;28;19925;-86